createdAt,value
2018-02-09T00:02:18.031Z,53.67
2018-02-09T00:04:45.530Z,52.63
2018-02-09T00:07:13.029Z,53.90
2018-02-09T00:09:40.548Z,51.87
2018-02-09T00:12:08.056Z,53.50
2018-02-09T00:14:35.577Z,53.93
2018-02-09T00:17:03.089Z,51.27
2018-02-09T00:19:30.586Z,55.10
2018-02-09T00:21:58.090Z,52.37
2018-02-09T00:24:25.604Z,55.47
2018-02-09T00:26:53.110Z,52.57
2018-02-09T00:29:20.631Z,53.50
2018-02-09T00:31:48.147Z,56.30
2018-02-09T00:34:15.695Z,54.27
2018-02-09T00:36:43.971Z,54.93
2018-02-09T00:39:11.494Z,53.23
2018-02-09T00:41:39.013Z,55.37
2018-02-09T00:44:06.561Z,54.63
2018-02-09T00:46:34.101Z,56.10
2018-02-09T00:49:01.658Z,56.77
2018-02-09T00:51:29.178Z,55.77
2018-02-09T00:53:56.710Z,56.00
2018-02-09T00:56:24.230Z,54.37
2018-02-09T00:58:51.738Z,54.53
2018-02-09T01:01:19.268Z,53.57
2018-02-09T01:03:46.784Z,54.30
2018-02-09T01:06:15.070Z,58.07
2018-02-09T01:08:43.356Z,55.93
2018-02-09T01:11:10.861Z,55.90
2018-02-09T01:13:38.372Z,53.67
2018-02-09T01:16:05.922Z,54.53
2018-02-09T01:18:34.194Z,56.13
2018-02-09T01:21:02.477Z,57.57
2018-02-09T01:23:30.013Z,56.73
2018-02-09T01:25:57.520Z,54.20
2018-02-09T01:28:25.018Z,56.57
2018-02-09T01:30:52.548Z,56.90
2018-02-09T01:33:20.046Z,54.20
2018-02-09T01:35:47.554Z,57.20
2018-02-09T01:38:15.083Z,56.70
2018-02-09T01:40:43.359Z,53.87
2018-02-09T01:43:11.648Z,58.93
2018-02-09T01:45:39.176Z,56.37
2018-02-09T01:48:06.709Z,56.57
2018-02-09T01:50:34.208Z,57.83
2018-02-09T01:53:02.486Z,58.20
2018-02-09T01:55:30.772Z,54.10
2018-02-09T01:57:58.280Z,58.03
2018-02-09T02:00:25.813Z,55.67
2018-02-09T02:02:53.318Z,56.40
2018-02-09T02:05:20.836Z,56.23
2018-02-09T02:07:48.360Z,56.20
2018-02-09T02:10:16.630Z,54.90
2018-02-09T02:12:44.907Z,55.93
2018-02-09T02:15:12.424Z,57.40
2018-02-09T02:17:39.928Z,54.03
2018-02-09T02:20:07.449Z,56.90
2018-02-09T02:22:34.954Z,57.83
2018-02-09T02:25:02.475Z,59.07
2018-02-09T02:27:29.996Z,55.37
2018-02-09T02:29:57.517Z,55.87
2018-02-09T02:32:25.788Z,58.20
2018-02-09T02:34:53.292Z,55.60
2018-02-09T02:37:20.797Z,57.77
2018-02-09T02:39:48.304Z,57.17
2018-02-09T02:42:15.815Z,56.67
2018-02-09T02:44:43.336Z,59.93
2018-02-09T02:47:10.843Z,58.50
2018-02-09T02:49:39.129Z,57.07
2018-02-09T02:52:07.409Z,59.87
2018-02-09T02:54:34.934Z,55.60
2018-02-09T02:57:02.444Z,58.30
2018-02-09T02:59:29.972Z,60.20
2018-02-09T03:01:58.241Z,59.47
2018-02-09T03:04:26.528Z,58.67
2018-02-09T03:06:54.811Z,59.40
2018-02-09T03:09:22.328Z,58.03
2018-02-09T03:11:49.846Z,57.93
2018-02-09T03:14:17.358Z,56.83
2018-02-09T03:16:44.875Z,56.73
2018-02-09T03:19:12.388Z,58.03
2018-02-09T03:21:39.914Z,58.87
2018-02-09T03:24:07.422Z,58.43
2018-02-09T03:26:34.944Z,59.50
2018-02-09T03:29:02.473Z,59.07
2018-02-09T03:31:29.977Z,59.80
2018-02-09T03:33:57.488Z,58.67
2018-02-09T03:36:25.012Z,57.80
2018-02-09T03:38:52.515Z,57.57
2018-02-09T03:41:20.035Z,56.80
2018-02-09T03:43:48.322Z,56.73
2018-02-09T03:46:15.834Z,60.07
2018-02-09T03:48:43.358Z,58.37
2018-02-09T03:51:10.882Z,57.33
2018-02-09T03:53:39.171Z,58.87
2018-02-09T03:56:06.668Z,60.03
2018-02-09T03:58:34.192Z,59.83
2018-02-09T04:01:01.712Z,59.33
2018-02-09T04:03:29.234Z,59.90
2018-02-09T04:05:57.528Z,57.33
2018-02-09T04:08:25.033Z,61.80
2018-02-09T04:10:52.555Z,59.57
2018-02-09T04:13:20.119Z,58.60
2018-02-09T04:15:47.628Z,59.17
2018-02-09T04:18:15.140Z,56.77
2018-02-09T04:20:42.650Z,60.13
2018-02-09T04:23:10.152Z,58.93
2018-02-09T04:25:37.660Z,60.00
2018-02-09T04:28:05.180Z,58.83
2018-02-09T04:30:32.690Z,57.97
2018-02-09T04:33:00.200Z,59.50
2018-02-09T04:35:27.710Z,58.30
2018-02-09T04:37:55.224Z,58.23
2018-02-09T04:40:23.513Z,56.53
2018-02-09T04:42:51.787Z,56.57
2018-02-09T04:45:20.052Z,57.30
2018-02-09T04:47:48.408Z,57.33
2018-02-09T04:50:15.937Z,57.43
2018-02-09T04:52:43.432Z,57.93
2018-02-09T04:55:10.947Z,56.10
2018-02-09T04:57:38.466Z,58.37
2018-02-09T05:00:05.972Z,57.93
2018-02-09T05:02:33.493Z,57.20
2018-02-09T05:05:01.017Z,57.80
2018-02-09T05:07:28.525Z,58.00
2018-02-09T05:09:56.045Z,57.97
2018-02-09T05:12:23.562Z,54.30
2018-02-09T05:14:51.070Z,53.87
2018-02-09T05:17:19.340Z,54.90
2018-02-09T05:19:46.878Z,53.93
2018-02-09T05:22:14.378Z,56.17
2018-02-09T05:24:42.652Z,54.90
2018-02-09T05:27:10.936Z,53.87
2018-02-09T05:29:38.452Z,55.27
2018-02-09T05:32:05.960Z,53.70
2018-02-09T05:34:33.473Z,53.40
2018-02-09T05:37:00.977Z,52.90
2018-02-09T05:39:28.480Z,55.07
2018-02-09T05:41:55.986Z,51.47
2018-02-09T05:44:23.529Z,55.70
2018-02-09T05:46:51.819Z,57.10
2018-02-09T05:49:19.368Z,56.73
2018-02-09T05:51:46.852Z,53.97
2018-02-09T05:54:14.352Z,55.30
2018-02-09T05:56:41.870Z,57.53
2018-02-09T05:59:09.376Z,56.87
2018-02-09T06:01:36.927Z,55.17
2018-02-09T06:04:04.444Z,58.57
2018-02-09T06:06:31.952Z,57.83
2018-02-09T06:08:59.472Z,60.87
2018-02-09T06:11:26.994Z,56.70
2018-02-09T06:13:55.280Z,58.40
2018-02-09T06:16:23.543Z,60.67
2018-02-09T06:18:51.090Z,57.43
2018-02-09T06:21:18.604Z,57.93
2018-02-09T06:23:46.120Z,61.53
2018-02-09T06:26:14.455Z,61.57
2018-02-09T06:28:41.948Z,57.90
2018-02-09T06:31:09.516Z,57.37
2018-02-09T06:33:37.808Z,56.47
2018-02-09T06:36:05.324Z,55.53
2018-02-09T06:38:32.840Z,55.07
2018-02-09T06:41:00.356Z,55.40
2018-02-09T06:43:27.874Z,56.67
2018-02-09T06:45:55.377Z,55.30
2018-02-09T06:48:22.904Z,54.13
2018-02-09T06:50:50.420Z,55.07
2018-02-09T06:53:17.923Z,54.83
2018-02-09T06:55:45.464Z,54.67
2018-02-09T06:58:12.977Z,54.17
2018-02-09T07:00:41.257Z,52.83
2018-02-09T07:03:09.548Z,55.10
2018-02-09T07:05:37.067Z,51.07
2018-02-09T07:08:04.572Z,52.80
2018-02-09T07:10:32.084Z,54.50
2018-02-09T07:12:59.595Z,54.00
2018-02-09T07:15:27.115Z,52.33
2018-02-09T07:17:54.644Z,52.17
2018-02-09T07:20:22.171Z,53.10
2018-02-09T07:22:49.687Z,52.00
2018-02-09T07:25:17.213Z,53.23
2018-02-09T07:27:44.802Z,53.87
2018-02-09T07:30:12.294Z,50.93
2018-02-09T07:32:39.824Z,52.63
2018-02-09T07:35:07.338Z,53.03
2018-02-09T07:37:34.850Z,53.23
2018-02-09T07:40:03.132Z,51.80
2018-02-09T07:42:30.642Z,50.70
2018-02-09T07:44:58.152Z,53.63
2018-02-09T07:47:26.452Z,52.80
2018-02-09T07:49:54.008Z,49.47
2018-02-09T07:52:21.550Z,51.07
2018-02-09T07:54:49.851Z,50.60
2018-02-09T07:57:17.370Z,52.40
2018-02-09T07:59:44.927Z,51.77
2018-02-09T08:02:12.441Z,52.87
2018-02-09T08:04:39.975Z,52.00
2018-02-09T08:07:07.594Z,51.50
2018-02-09T08:09:35.115Z,51.43
2018-02-09T08:12:02.619Z,56.90
2018-02-09T08:14:30.128Z,56.73
2018-02-09T08:16:57.674Z,53.63
2018-02-09T08:19:25.186Z,57.03
2018-02-09T08:21:52.862Z,55.67
2018-02-09T08:24:20.502Z,54.87
2018-02-09T08:26:48.014Z,57.40
2018-02-09T08:29:15.520Z,53.77
2018-02-09T08:31:43.034Z,54.40
2018-02-09T08:34:10.534Z,56.83
2018-02-09T08:36:38.036Z,54.13
2018-02-09T08:39:05.582Z,54.60
2018-02-09T08:41:33.874Z,55.60
2018-02-09T08:44:01.424Z,55.13
2018-02-09T08:46:29.744Z,55.30
2018-02-09T08:48:57.267Z,54.70
2018-02-09T08:51:24.792Z,52.30
2018-02-09T08:53:52.333Z,54.17
2018-02-09T08:56:19.863Z,52.33
2018-02-09T08:58:47.403Z,52.33
2018-02-09T09:01:15.751Z,52.03
2018-02-09T09:03:43.296Z,54.80
2018-02-09T09:06:10.842Z,54.87
2018-02-09T09:08:38.386Z,52.60
2018-02-09T09:11:05.922Z,52.23
2018-02-09T09:13:33.470Z,50.47
2018-02-09T09:16:01.012Z,49.90
2018-02-09T09:18:28.544Z,50.07
2018-02-09T09:20:56.086Z,52.50
2018-02-09T09:23:23.618Z,50.10
2018-02-09T09:25:51.530Z,48.67
2018-02-09T09:28:19.068Z,50.53
2018-02-09T09:30:46.606Z,52.53
2018-02-09T09:33:14.187Z,52.20
2018-02-09T09:35:41.724Z,48.30
2018-02-09T09:38:09.280Z,50.07
2018-02-09T09:40:36.854Z,51.83
2018-02-09T09:43:04.448Z,50.13
2018-02-09T09:45:32.022Z,52.73
2018-02-09T09:47:59.548Z,50.77
2018-02-09T09:50:27.185Z,51.77
2018-02-09T09:52:54.729Z,52.63
2018-02-09T09:55:23.026Z,53.53
2018-02-09T09:57:50.540Z,52.93
2018-02-09T10:00:20.665Z,53.97
2018-02-09T10:02:48.222Z,54.77
2018-02-09T10:05:15.786Z,55.27
2018-02-09T10:07:43.328Z,55.43
2018-02-09T10:10:11.634Z,53.43
2018-02-09T10:12:39.925Z,51.67
2018-02-09T10:15:08.250Z,53.73
2018-02-09T10:17:35.812Z,52.07
2018-02-09T10:20:03.369Z,49.53
2018-02-09T10:22:30.908Z,49.77
2018-02-09T10:24:59.566Z,51.83
2018-02-09T10:27:27.100Z,48.63
2018-02-09T10:29:55.463Z,48.87
2018-02-09T10:32:23.012Z,48.63
2018-02-09T10:34:50.592Z,50.63
2018-02-09T10:37:18.180Z,49.73
2018-02-09T10:39:46.537Z,49.50
2018-02-09T10:42:14.110Z,51.73
2018-02-09T10:44:42.455Z,48.87
2018-02-09T10:47:10.828Z,50.13
2018-02-09T10:49:38.439Z,50.43
2018-02-09T10:52:06.076Z,49.67
2018-02-09T10:54:33.631Z,47.87
2018-02-09T10:57:01.166Z,48.33
2018-02-09T10:59:28.704Z,51.20
2018-02-09T11:01:56.256Z,50.73
2018-02-09T11:04:23.784Z,50.23
2018-02-09T11:06:52.571Z,48.90
2018-02-09T11:09:25.672Z,47.67
2018-02-09T11:12:01.700Z,47.13
2018-02-09T11:14:29.218Z,48.50
2018-02-09T11:16:56.743Z,48.60
2018-02-09T11:19:25.028Z,47.43
2018-02-09T11:21:53.328Z,46.60
2018-02-09T11:24:20.829Z,43.43
2018-02-09T11:26:48.379Z,42.07
2018-02-09T11:29:15.914Z,42.37
2018-02-09T11:31:43.430Z,41.20
2018-02-09T11:34:11.736Z,41.47
2018-02-09T11:36:39.233Z,40.90
2018-02-09T11:39:06.741Z,40.70
2018-02-09T11:41:34.252Z,44.97
2018-02-09T11:44:01.758Z,40.53
2018-02-09T11:46:29.283Z,41.43
2018-02-09T11:48:56.792Z,40.00
2018-02-09T11:51:24.292Z,41.27
2018-02-09T11:53:51.796Z,39.97
2018-02-09T11:56:19.304Z,38.60
2018-02-09T11:58:46.814Z,42.00
2018-02-09T12:01:14.321Z,40.00
2018-02-09T12:03:41.856Z,39.87
2018-02-09T12:06:09.356Z,39.50
2018-02-09T12:08:36.852Z,51.40
2018-02-09T12:11:04.368Z,46.70
2018-02-09T12:13:31.861Z,41.43
2018-02-09T12:15:59.358Z,44.53
2018-02-09T12:18:26.866Z,38.90
2018-02-09T12:20:55.134Z,54.50
2018-02-09T12:23:23.412Z,49.57
2018-02-09T12:25:51.697Z,39.10
2018-02-09T12:28:19.972Z,46.27
2018-02-09T12:30:48.270Z,41.83
2018-02-09T12:33:15.788Z,40.93
2018-02-09T12:35:44.068Z,42.60
2018-02-09T12:38:11.587Z,39.53
2018-02-09T12:40:39.112Z,42.37
2018-02-09T12:43:06.621Z,42.83
2018-02-09T12:45:34.128Z,40.23
2018-02-09T12:48:01.675Z,40.37
2018-02-09T12:50:29.940Z,38.20
2018-02-09T12:52:58.224Z,37.87
2018-02-09T12:55:26.537Z,39.80
2018-02-09T12:57:54.040Z,39.37
2018-02-09T13:00:21.552Z,38.47
2018-02-09T13:02:49.067Z,39.57
2018-02-09T13:05:16.576Z,39.93
2018-02-09T13:07:44.072Z,37.83
2018-02-09T13:10:11.588Z,37.10
2018-02-09T13:12:50.832Z,37.67
2018-02-09T13:15:18.358Z,37.63
2018-02-09T13:17:45.849Z,44.37
2018-02-09T13:20:13.351Z,39.10
2018-02-09T13:22:52.693Z,39.20
2018-02-09T13:25:20.976Z,38.10
2018-02-09T13:27:49.231Z,37.53
2018-02-09T13:30:16.750Z,39.53
2018-02-09T13:32:55.956Z,37.83
2018-02-09T13:35:23.488Z,39.33
2018-02-09T13:37:51.008Z,38.97
2018-02-09T13:40:18.516Z,37.73
2018-02-09T13:42:46.088Z,38.83
2018-02-09T13:45:13.634Z,36.37
2018-02-09T13:47:41.148Z,36.70
2018-02-09T13:50:08.676Z,39.73
2018-02-09T13:52:36.183Z,35.80
2018-02-09T13:55:03.691Z,34.10
2018-02-09T13:57:31.222Z,36.10
2018-02-09T13:59:59.509Z,37.63
2018-02-09T14:02:27.771Z,36.83
2018-02-09T14:04:55.293Z,35.40
2018-02-09T14:07:22.803Z,35.50
2018-02-09T14:09:51.080Z,34.53
2018-02-09T14:12:18.587Z,36.20
2018-02-09T14:14:46.093Z,33.67
2018-02-09T14:17:14.381Z,34.90
2018-02-09T14:19:42.674Z,35.80
2018-02-09T14:22:10.954Z,35.37
2018-02-09T14:24:39.207Z,35.83
2018-02-09T14:27:07.516Z,34.97
2018-02-09T14:29:35.009Z,36.47
2018-02-09T14:32:02.527Z,34.80
2018-02-09T14:34:30.041Z,34.13
2018-02-09T14:36:57.543Z,34.33
2018-02-09T14:39:25.058Z,36.77
2018-02-09T14:41:53.356Z,35.73
2018-02-09T14:44:20.852Z,36.50
2018-02-09T14:46:48.372Z,35.27
2018-02-09T14:49:15.892Z,36.20
2018-02-09T14:51:43.391Z,36.67
2018-02-09T14:54:10.897Z,35.47
2018-02-09T14:56:39.169Z,35.33
2018-02-09T14:59:06.685Z,37.20
2018-02-09T15:01:34.189Z,35.60
2018-02-09T15:04:01.700Z,34.63
2018-02-09T15:06:29.967Z,32.97
2018-02-09T15:08:58.241Z,38.03
2018-02-09T15:11:26.617Z,39.80
2018-02-09T15:13:54.070Z,44.70
2018-02-09T15:16:21.582Z,52.77
2018-02-09T15:18:49.113Z,44.27
2018-02-09T15:21:16.634Z,42.83
2018-02-09T15:23:44.132Z,38.17
2018-02-09T15:26:11.639Z,39.27
2018-02-09T15:28:39.188Z,44.17
2018-02-09T15:31:06.681Z,36.70
2018-02-09T15:33:34.215Z,37.70
2018-02-09T15:36:01.727Z,34.00
2018-02-09T15:38:29.245Z,41.20
2018-02-09T15:40:56.813Z,37.67
2018-02-09T15:43:24.283Z,39.97
2018-02-09T15:45:52.535Z,46.30
2018-02-09T15:48:20.839Z,38.20
2018-02-09T15:50:48.343Z,37.50
2018-02-09T15:53:15.841Z,39.23
2018-02-09T15:55:43.351Z,42.47
2018-02-09T15:58:10.859Z,43.60
2018-02-09T16:00:39.131Z,44.07
2018-02-09T16:03:07.465Z,48.40
2018-02-09T16:05:34.965Z,36.47
2018-02-09T16:08:02.467Z,55.07
2018-02-09T16:10:29.996Z,40.37
2018-02-09T16:12:57.500Z,38.10
2018-02-09T16:15:25.046Z,35.70
2018-02-09T16:17:52.549Z,38.23
2018-02-09T16:20:20.080Z,78.57
2018-02-09T16:22:47.591Z,131.87
2018-02-09T16:25:15.869Z,105.97
2018-02-09T16:27:43.371Z,81.03
2018-02-09T16:30:10.882Z,94.10
2018-02-09T16:32:39.314Z,54.33
2018-02-09T16:35:06.840Z,51.27
2018-02-09T16:37:34.356Z,45.40
2018-02-09T16:40:01.872Z,58.27
2018-02-09T16:42:29.387Z,44.67
2018-02-09T16:44:57.665Z,75.97
2018-02-09T16:47:25.962Z,55.23
2018-02-09T16:49:53.471Z,47.13
2018-02-09T16:52:20.967Z,41.77
2018-02-09T16:54:49.278Z,52.77
2018-02-09T16:57:16.795Z,70.10
2018-02-09T16:59:45.119Z,42.40
2018-02-09T17:02:12.608Z,43.50
2018-02-09T17:04:40.110Z,42.63
2018-02-09T17:07:07.637Z,47.77
2018-02-09T17:09:35.171Z,45.00
2018-02-09T17:12:02.683Z,43.57
2018-02-09T17:14:30.219Z,40.30
2018-02-09T17:16:57.733Z,46.13
2018-02-09T17:19:25.254Z,42.50
2018-02-09T17:21:52.760Z,42.20
2018-02-09T17:24:20.294Z,43.07
2018-02-09T17:26:47.807Z,41.27
2018-02-09T17:29:15.339Z,36.57
2018-02-09T17:31:42.855Z,37.83
2018-02-09T17:34:10.371Z,37.97
2018-02-09T17:36:37.889Z,42.53
2018-02-09T17:39:05.421Z,42.13
2018-02-09T17:41:33.718Z,38.70
2018-02-09T17:44:01.232Z,42.20
2018-02-09T17:46:28.753Z,41.97
2018-02-09T17:48:56.295Z,44.80
2018-02-09T17:51:23.851Z,40.60
2018-02-09T17:53:51.384Z,42.40
2018-02-09T17:56:19.666Z,42.13
2018-02-09T17:58:47.971Z,43.70
2018-02-09T18:01:16.293Z,41.53
2018-02-09T18:03:43.791Z,43.67
2018-02-09T18:06:11.303Z,43.00
2018-02-09T18:08:38.831Z,41.90
2018-02-09T18:11:06.333Z,41.57
2018-02-09T18:13:33.861Z,43.23
2018-02-09T18:16:01.388Z,42.63
2018-02-09T18:18:28.915Z,40.60
2018-02-09T18:20:56.433Z,44.03
2018-02-09T18:23:23.983Z,44.80
2018-02-09T18:25:51.500Z,44.07
2018-02-09T18:28:19.771Z,44.90
2018-02-09T18:30:47.293Z,44.00
2018-02-09T18:33:14.817Z,40.90
2018-02-09T18:35:42.339Z,42.97
2018-02-09T18:38:10.643Z,43.00
2018-02-09T18:40:38.923Z,42.30
2018-02-09T18:43:06.448Z,41.23
2018-02-09T18:45:33.971Z,43.07
2018-02-09T18:48:01.517Z,44.70
2018-02-09T18:50:29.033Z,43.87
2018-02-09T18:52:57.323Z,42.37
2018-02-09T18:55:25.602Z,42.97
2018-02-09T18:57:53.115Z,44.50
2018-02-09T19:00:20.649Z,43.47
2018-02-09T19:02:48.186Z,45.43
2018-02-09T19:05:15.698Z,40.63
2018-02-09T19:07:43.215Z,41.00
2018-02-09T19:10:10.716Z,41.70
2018-02-09T19:12:38.233Z,43.87
2018-02-09T19:15:05.795Z,41.23
2018-02-09T19:17:33.313Z,41.33
2018-02-09T19:20:00.823Z,42.60
2018-02-09T19:22:28.341Z,40.43
2018-02-09T19:24:56.623Z,40.40
2018-02-09T19:27:24.913Z,39.37
2018-02-09T19:29:52.443Z,40.23
2018-02-09T19:32:19.966Z,40.10
2018-02-09T19:34:47.478Z,40.47
2018-02-09T19:37:15.775Z,40.90
2018-02-09T19:39:43.292Z,39.90
2018-02-09T19:42:10.791Z,38.77
2018-02-09T19:44:38.313Z,39.80
2018-02-09T19:47:05.833Z,38.97
2018-02-09T19:49:33.342Z,40.67
2018-02-09T19:52:00.856Z,40.37
2018-02-09T19:54:28.369Z,40.70
2018-02-09T19:56:55.901Z,42.40
2018-02-09T19:59:24.174Z,41.57
2018-02-09T20:01:51.687Z,39.50
2018-02-09T20:04:19.203Z,43.53
2018-02-09T20:06:47.500Z,40.47
2018-02-09T20:09:15.020Z,41.07
2018-02-09T20:11:42.534Z,40.27
2018-02-09T20:14:10.053Z,39.90
2018-02-09T20:16:37.569Z,38.43
2018-02-09T20:19:05.100Z,42.03
2018-02-09T20:21:32.621Z,39.80
2018-02-09T20:24:00.128Z,41.90
2018-02-09T20:26:27.645Z,40.37
2018-02-09T20:28:55.163Z,42.53
2018-02-09T20:31:22.675Z,42.97
2018-02-09T20:33:51.107Z,40.57
2018-02-09T20:36:18.633Z,42.97
2018-02-09T20:38:46.167Z,42.17
2018-02-09T20:41:14.485Z,42.63
2018-02-09T20:43:42.069Z,42.13
2018-02-09T20:46:10.403Z,41.77
2018-02-09T20:48:37.950Z,41.90
2018-02-09T20:51:06.252Z,43.40
2018-02-09T20:53:33.777Z,41.43
2018-02-09T20:56:02.126Z,42.53
2018-02-09T20:58:29.665Z,43.57
2018-02-09T21:00:57.200Z,41.03
2018-02-09T21:03:24.735Z,42.03
2018-02-09T21:05:53.089Z,43.03
2018-02-09T21:08:20.627Z,44.67
2018-02-09T21:10:48.150Z,43.43
2018-02-09T21:13:15.750Z,43.47
2018-02-09T21:15:43.275Z,41.83
2018-02-09T21:18:10.825Z,43.93
2018-02-09T21:20:38.373Z,44.97
2018-02-09T21:23:05.928Z,45.23
2018-02-09T21:25:34.253Z,45.20
2018-02-09T21:28:01.819Z,45.60
2018-02-09T21:30:29.346Z,45.37
2018-02-09T21:32:56.919Z,46.77
2018-02-09T21:35:25.229Z,45.97
2018-02-09T21:37:52.758Z,48.23
2018-02-09T21:40:20.321Z,50.97
2018-02-09T21:42:47.859Z,47.50
2018-02-09T21:45:15.401Z,49.17
2018-02-09T21:47:42.953Z,47.80
2018-02-09T21:50:11.254Z,48.47
2018-02-09T21:52:38.802Z,48.57
2018-02-09T21:55:06.391Z,48.13
2018-02-09T21:57:33.966Z,45.13
2018-02-09T22:00:01.503Z,45.30
2018-02-09T22:02:29.055Z,46.43
2018-02-09T22:04:56.648Z,45.57
2018-02-09T22:07:24.207Z,43.87
2018-02-09T22:09:51.745Z,44.87
2018-02-09T22:12:19.305Z,45.40
2018-02-09T22:14:46.871Z,42.53
2018-02-09T22:17:15.172Z,43.23
2018-02-09T22:19:42.712Z,45.97
2018-02-09T22:22:10.239Z,46.57
2018-02-09T22:24:38.537Z,45.60
2018-02-09T22:27:06.175Z,45.00
2018-02-09T22:29:33.699Z,45.33
2018-02-09T22:32:01.227Z,44.37
2018-02-09T22:34:28.761Z,45.37
2018-02-09T22:36:56.287Z,45.50
2018-02-09T22:39:23.801Z,44.77
2018-02-09T22:41:52.087Z,44.93
2018-02-09T22:44:19.617Z,43.10
2018-02-09T22:46:47.141Z,43.37
2018-02-09T22:49:14.695Z,43.60
2018-02-09T22:51:42.235Z,42.93
2018-02-09T22:54:09.763Z,43.13
2018-02-09T22:56:37.309Z,39.40
2018-02-09T22:59:04.847Z,40.67
2018-02-09T23:01:33.145Z,40.87
2018-02-09T23:04:00.724Z,40.87
2018-02-09T23:06:28.246Z,43.67
2018-02-09T23:08:56.568Z,41.60
2018-02-09T23:11:24.114Z,40.70
2018-02-09T23:13:51.682Z,41.70
2018-02-09T23:16:19.211Z,43.30
2018-02-09T23:18:46.747Z,42.07
2018-02-09T23:21:14.297Z,43.60
2018-02-09T23:23:41.799Z,39.43
2018-02-09T23:26:09.338Z,40.87
2018-02-09T23:28:36.882Z,41.23
2018-02-09T23:31:04.426Z,41.87
2018-02-09T23:33:32.014Z,41.63
2018-02-09T23:36:00.327Z,41.83
2018-02-09T23:38:28.630Z,41.00
2018-02-09T23:40:56.191Z,42.10
2018-02-09T23:43:23.713Z,40.90
2018-02-09T23:45:51.262Z,41.93
2018-02-09T23:48:18.803Z,41.00
2018-02-09T23:50:47.092Z,41.30
2018-02-09T23:53:15.391Z,40.43
2018-02-09T23:55:42.923Z,42.53
2018-02-09T23:58:11.214Z,40.50
